createdAt,value
2023-11-24T00:02:17.096Z,89038.70
2023-11-24T00:04:45.735Z,89036.73
2023-11-24T00:07:13.529Z,89040.17
2023-11-24T00:09:41.378Z,89038.94
2023-11-24T00:12:09.480Z,89035.67
2023-11-24T00:14:37.033Z,89026.33
2023-11-24T00:17:06.882Z,89022.30
2023-11-24T00:19:34.417Z,89012.55
2023-11-24T00:22:02.201Z,89003.42
2023-11-24T00:24:29.847Z,88999.60
2023-11-24T00:26:57.485Z,89002.39
2023-11-24T00:29:25.045Z,89005.30
2023-11-24T00:31:52.516Z,89006.98
2023-11-24T00:34:20.252Z,89008.72
2023-11-24T00:36:48.280Z,89002.31
2023-11-24T00:39:16.429Z,88986.95
2023-11-24T00:41:44.392Z,88979.14
2023-11-24T00:44:12.581Z,88979.29
2023-11-24T00:46:40.631Z,88973.25
2023-11-24T00:49:08.410Z,88979.22
2023-11-24T00:51:36.734Z,88982.13
2023-11-24T00:54:04.476Z,88980.99
2023-11-24T00:56:31.893Z,88966.27
2023-11-24T00:58:59.448Z,88957.80
2023-11-24T01:01:27.039Z,88960.41
2023-11-24T01:03:54.834Z,88963.44
2023-11-24T01:06:22.925Z,88956.77
2023-11-24T01:08:50.367Z,88945.50
2023-11-24T01:11:17.968Z,88935.21
2023-11-24T01:13:45.349Z,88932.13
2023-11-24T01:16:12.884Z,88926.48
2023-11-24T01:18:40.590Z,88918.48
2023-11-24T01:21:08.737Z,88910.41
2023-11-24T01:23:37.151Z,88911.05
2023-11-24T01:26:05.208Z,88906.61
2023-11-24T01:28:33.149Z,88898.84
2023-11-24T01:31:01.151Z,88889.93
2023-11-24T01:33:29.518Z,88882.38
2023-11-24T01:35:57.785Z,88879.30
2023-11-24T01:38:25.568Z,88884.95
2023-11-24T01:40:53.286Z,88879.77
2023-11-24T01:43:20.855Z,88873.93
2023-11-24T01:45:48.512Z,88872.42
2023-11-24T01:48:18.881Z,88862.72
2023-11-24T01:50:47.161Z,88859.25
2023-11-24T01:53:15.672Z,88851.30
2023-11-24T01:55:43.676Z,88838.52
2023-11-24T01:58:11.460Z,88831.98
2023-11-24T02:00:40.152Z,88831.71
2023-11-24T02:03:07.865Z,88835.29
2023-11-24T02:05:38.783Z,88830.65
2023-11-24T02:08:07.427Z,88832.16
2023-11-24T02:10:35.994Z,88821.98
2023-11-24T02:13:03.572Z,88810.52
2023-11-24T02:15:31.755Z,88808.54
2023-11-24T02:17:59.645Z,88805.53
2023-11-24T02:20:34.769Z,88798.47
2023-11-24T02:23:02.181Z,88787.98
2023-11-24T02:25:29.842Z,88777.41
2023-11-24T02:27:57.664Z,88780.38
2023-11-24T02:30:26.648Z,88781.03
2023-11-24T02:32:55.044Z,88789.39
2023-11-24T02:35:23.561Z,88780.33
2023-11-24T02:37:51.267Z,88782.90
2023-11-24T02:40:19.334Z,88777.11
2023-11-24T02:42:47.088Z,88773.23
2023-11-24T02:45:14.720Z,88761.55
2023-11-24T02:47:42.134Z,88751.45
2023-11-24T02:50:10.140Z,88737.11
2023-11-24T02:52:37.639Z,88736.13
2023-11-24T02:55:06.372Z,88742.60
2023-11-24T02:57:34.372Z,88736.98
2023-11-24T03:00:07.050Z,88726.85
2023-11-24T03:02:34.799Z,88718.13
2023-11-24T03:05:02.469Z,88718.59
2023-11-24T03:07:30.253Z,88713.42
2023-11-24T03:09:57.797Z,88709.70
2023-11-24T03:12:25.778Z,88702.40
2023-11-24T03:14:55.379Z,88695.86
2023-11-24T03:17:22.826Z,88693.42
2023-11-24T03:19:50.079Z,88693.95
2023-11-24T03:22:17.440Z,88671.20
2023-11-24T03:24:45.025Z,88662.16
2023-11-24T03:27:12.453Z,88653.34
2023-11-24T03:29:41.976Z,88652.11
2023-11-24T03:32:09.411Z,88654.15
2023-11-24T03:34:37.671Z,88641.61
2023-11-24T03:37:05.950Z,88659.05
2023-11-24T03:39:33.676Z,88643.63
2023-11-24T03:42:01.097Z,88633.73
2023-11-24T03:44:28.682Z,88625.06
2023-11-24T03:46:56.090Z,88619.58
2023-11-24T03:49:23.676Z,88609.95
2023-11-24T03:51:51.464Z,88603.04
2023-11-24T03:54:23.630Z,88596.76
2023-11-24T03:56:51.149Z,88607.01
2023-11-24T03:59:19.139Z,88609.51
2023-11-24T04:01:46.996Z,88600.38
2023-11-24T04:04:14.810Z,88601.45
2023-11-24T04:06:42.646Z,88593.55
2023-11-24T04:09:11.711Z,88597.27
2023-11-24T04:11:39.854Z,88592.17
2023-11-24T04:14:07.630Z,88580.94
2023-11-24T04:16:35.787Z,88578.95
2023-11-24T04:19:04.059Z,88576.06
2023-11-24T04:21:31.647Z,88564.14
2023-11-24T04:23:59.059Z,88552.81
2023-11-24T04:26:26.676Z,88549.23
2023-11-24T04:28:58.939Z,88549.20
2023-11-24T04:31:26.818Z,88549.10
2023-11-24T04:33:54.218Z,88546.73
2023-11-24T04:36:21.835Z,88538.29
2023-11-24T04:38:50.881Z,88535.09
2023-11-24T04:41:18.691Z,88536.66
2023-11-24T04:43:46.849Z,88532.62
2023-11-24T04:46:14.821Z,88527.36
2023-11-24T04:48:43.482Z,88521.13
2023-11-24T04:51:11.209Z,88512.00
2023-11-24T04:53:41.230Z,88506.35
2023-11-24T04:56:09.951Z,88500.55
2023-11-24T04:58:37.561Z,88495.19
2023-11-24T05:01:06.561Z,88503.19
2023-11-24T05:03:34.181Z,88498.39
2023-11-24T05:06:03.091Z,88492.77
2023-11-24T05:08:30.661Z,88487.05
2023-11-24T05:10:58.237Z,88492.30
2023-11-24T05:13:26.162Z,88492.12
2023-11-24T05:15:54.131Z,88476.00
2023-11-24T05:18:21.804Z,88476.39
2023-11-24T05:20:50.599Z,88475.73
2023-11-24T05:23:18.366Z,88473.70
2023-11-24T05:25:45.804Z,88469.69
2023-11-24T05:28:13.474Z,88466.58
2023-11-24T05:30:41.446Z,88467.08
2023-11-24T05:33:09.023Z,88467.15
2023-11-24T05:35:38.715Z,88459.80
2023-11-24T05:38:06.070Z,88459.02
2023-11-24T05:40:33.536Z,88451.08
2023-11-24T05:43:01.781Z,88447.45
2023-11-24T05:45:31.830Z,88450.19
2023-11-24T05:47:59.613Z,88447.65
2023-11-24T05:50:26.951Z,88445.70
2023-11-24T05:52:54.602Z,88437.54
2023-11-24T05:55:22.566Z,88434.30
2023-11-24T05:57:50.273Z,88425.31
2023-11-24T06:00:20.275Z,88417.91
2023-11-24T06:02:48.411Z,88419.67
2023-11-24T06:05:17.624Z,88426.29
2023-11-24T06:07:47.180Z,88426.25
2023-11-24T06:10:17.838Z,88427.63
2023-11-24T06:12:45.325Z,88428.15
2023-11-24T06:15:12.935Z,88430.48
2023-11-24T06:17:40.540Z,88429.09
2023-11-24T06:20:09.110Z,88434.59
2023-11-24T06:22:36.668Z,88424.71
2023-11-24T06:25:04.206Z,88417.38
2023-11-24T06:27:31.798Z,88418.29
2023-11-24T06:29:59.977Z,88428.13
2023-11-24T06:32:27.781Z,88421.84
2023-11-24T06:34:55.383Z,88432.33
2023-11-24T06:37:22.739Z,88431.89
2023-11-24T06:39:50.536Z,88427.59
2023-11-24T06:42:18.681Z,88428.30
2023-11-24T06:44:46.262Z,88434.35
2023-11-24T06:47:14.319Z,88435.49
2023-11-24T06:49:42.089Z,88422.48
2023-11-24T06:52:10.201Z,88415.06
2023-11-24T06:54:37.865Z,88413.64
2023-11-24T06:57:06.265Z,88417.44
2023-11-24T06:59:33.904Z,88420.10
2023-11-24T07:02:01.649Z,88417.23
2023-11-24T07:04:29.541Z,88407.92
2023-11-24T07:06:57.187Z,88420.51
2023-11-24T07:09:25.224Z,88429.39
2023-11-24T07:11:53.268Z,88429.92
2023-11-24T07:14:20.842Z,88434.13
2023-11-24T07:16:49.169Z,88427.77
2023-11-24T07:19:18.245Z,88430.15
2023-11-24T07:21:46.853Z,88425.45
2023-11-24T07:24:14.663Z,88433.02
2023-11-24T07:26:42.345Z,88425.26
2023-11-24T07:29:10.242Z,88418.91
2023-11-24T07:31:37.952Z,88410.39
2023-11-24T07:34:05.892Z,88399.34
2023-11-24T07:36:33.744Z,88396.48
2023-11-24T07:39:01.364Z,88390.58
2023-11-24T07:41:29.635Z,88392.11
2023-11-24T07:43:57.715Z,88389.80
2023-11-24T07:46:26.754Z,88384.06
2023-11-24T07:48:54.684Z,88384.36
2023-11-24T07:51:23.352Z,88375.36
2023-11-24T07:53:51.021Z,88374.45
2023-11-24T07:56:18.602Z,88368.21
2023-11-24T07:58:46.270Z,88359.75
2023-11-24T08:01:15.599Z,88356.86
2023-11-24T08:03:43.246Z,88345.39
2023-11-24T08:06:10.883Z,88344.63
2023-11-24T08:08:38.537Z,88342.45
2023-11-24T08:11:07.209Z,88342.30
2023-11-24T08:13:34.766Z,88342.55
2023-11-24T08:16:03.744Z,88351.92
2023-11-24T08:18:31.546Z,88354.30
2023-11-24T08:21:03.511Z,88348.08
2023-11-24T08:23:32.168Z,88338.83
2023-11-24T08:25:59.925Z,88342.20
2023-11-24T08:28:27.514Z,88336.83
2023-11-24T08:30:57.026Z,88329.55
2023-11-24T08:33:24.671Z,88328.25
2023-11-24T08:35:52.112Z,88324.16
2023-11-24T08:38:19.566Z,88321.91
2023-11-24T08:40:47.246Z,88316.73
2023-11-24T08:43:15.271Z,88311.16
2023-11-24T08:45:42.859Z,88308.55
2023-11-24T08:48:11.227Z,88303.98
2023-11-24T08:50:39.298Z,88304.48
2023-11-24T08:53:07.385Z,88308.86
2023-11-24T08:55:34.842Z,88309.94
2023-11-24T08:58:02.687Z,88298.59
2023-11-24T09:00:31.555Z,88297.31
2023-11-24T09:03:01.072Z,88294.23
2023-11-24T09:05:28.824Z,88294.16
2023-11-24T09:07:56.546Z,88288.18
2023-11-24T09:10:24.406Z,88279.72
2023-11-24T09:12:52.205Z,88282.73
2023-11-24T09:15:19.725Z,88276.79
2023-11-24T09:17:47.238Z,88271.88
2023-11-24T09:20:18.574Z,88280.94
2023-11-24T09:22:47.296Z,88280.04
2023-11-24T09:25:17.520Z,88279.64
2023-11-24T09:27:45.994Z,88272.23
2023-11-24T09:30:14.316Z,88267.80
2023-11-24T09:32:44.977Z,88262.88
2023-11-24T09:35:13.027Z,88248.86
2023-11-24T09:37:40.892Z,88246.00
2023-11-24T09:40:14.687Z,88244.53
2023-11-24T09:42:46.763Z,88245.36
2023-11-24T09:45:20.880Z,88230.54
2023-11-24T09:47:51.999Z,88228.08
2023-11-24T09:50:27.433Z,88226.46
2023-11-24T09:53:02.464Z,88222.96
2023-11-24T09:55:30.893Z,88220.11
2023-11-24T09:57:59.649Z,88220.62
2023-11-24T10:00:28.618Z,88213.97
2023-11-24T10:03:04.734Z,88210.96
2023-11-24T10:05:32.451Z,88206.34
2023-11-24T10:08:02.494Z,88201.16
2023-11-24T10:10:31.097Z,88199.18
2023-11-24T10:13:01.688Z,88196.41
2023-11-24T10:15:30.362Z,88182.42
2023-11-24T10:17:58.688Z,88183.80
2023-11-24T10:20:30.477Z,88168.86
2023-11-24T10:23:00.152Z,88170.87
2023-11-24T10:25:30.447Z,88160.48
2023-11-24T10:28:07.055Z,88153.73
2023-11-24T10:30:38.713Z,88153.92
2023-11-24T10:33:06.935Z,88145.73
2023-11-24T10:35:34.613Z,88141.85
2023-11-24T10:38:04.263Z,88127.73
2023-11-24T10:40:34.043Z,88121.21
2023-11-24T10:43:04.067Z,88123.29
2023-11-24T10:45:33.968Z,88119.13
2023-11-24T10:48:22.124Z,88115.52
2023-11-24T10:51:06.187Z,88107.25
2023-11-24T10:53:38.030Z,88093.63
2023-11-24T10:56:07.627Z,88087.94
2023-11-24T10:58:35.680Z,88074.45
2023-11-24T11:01:04.176Z,88067.90
2023-11-24T11:03:33.395Z,88057.28
2023-11-24T11:06:30.778Z,88051.09
2023-11-24T11:09:25.324Z,88041.35
2023-11-24T11:12:31.197Z,88037.52
2023-11-24T11:15:00.138Z,88025.92
2023-11-24T11:17:28.267Z,88026.15
2023-11-24T11:20:14.324Z,88021.23
2023-11-24T11:22:46.162Z,88008.71
2023-11-24T11:25:29.031Z,88000.57
2023-11-24T11:27:57.341Z,87993.98
2023-11-24T11:30:28.334Z,87990.98
2023-11-24T11:33:17.089Z,87990.73
2023-11-24T11:35:46.344Z,87987.77
2023-11-24T11:38:34.808Z,87983.52
2023-11-24T11:41:02.425Z,87972.67
2023-11-24T11:43:33.265Z,87969.37
2023-11-24T11:46:04.991Z,87960.23
2023-11-24T11:48:40.146Z,87959.01
2023-11-24T11:51:15.060Z,87956.09
2023-11-24T11:53:42.841Z,87951.23
2023-11-24T11:56:12.537Z,87947.19
2023-11-24T11:58:43.098Z,87946.82
2023-11-24T12:01:11.261Z,87945.12
2023-11-24T12:03:39.719Z,87935.00
2023-11-24T12:06:08.574Z,87935.34
2023-11-24T12:08:40.386Z,87930.45
2023-11-24T12:11:07.932Z,87922.10
2023-11-24T12:13:40.667Z,87913.34
2023-11-24T12:16:10.020Z,87908.77
2023-11-24T12:18:38.026Z,87906.39
2023-11-24T12:21:08.731Z,87900.09
2023-11-24T12:23:37.204Z,87897.13
2023-11-24T12:26:04.917Z,87897.45
2023-11-24T12:28:32.545Z,87890.59
2023-11-24T12:31:04.689Z,87878.44
2023-11-24T12:33:31.984Z,87878.71
2023-11-24T12:36:00.885Z,87874.79
2023-11-24T12:41:56.371Z,87852.39
2023-11-24T12:44:28.630Z,87848.92
2023-11-24T12:50:08.168Z,87832.56
2023-11-24T12:52:37.827Z,87826.33
2023-11-24T12:55:09.284Z,87829.90
2023-11-24T12:57:39.752Z,87822.99
2023-11-24T13:00:15.399Z,87820.52
2023-11-24T13:02:44.256Z,87822.30
2023-11-24T13:05:14.578Z,87817.55
2023-11-24T13:07:43.198Z,87804.18
2023-11-24T13:10:14.485Z,87793.74
2023-11-24T13:12:43.003Z,87790.04
2023-11-24T13:15:11.460Z,87783.36
2023-11-24T13:17:40.312Z,87783.25
2023-11-24T13:20:13.011Z,87775.23
2023-11-24T13:22:45.071Z,87765.16
2023-11-24T13:25:13.624Z,87760.67
2023-11-24T13:27:43.442Z,87756.36
2023-11-24T13:30:13.665Z,87757.05
2023-11-24T13:32:44.992Z,87744.54
2023-11-24T13:35:17.761Z,87743.19
2023-11-24T13:37:46.341Z,87746.15
2023-11-24T13:40:14.090Z,87740.97
2023-11-24T13:42:43.475Z,87737.38
2023-11-24T13:45:14.716Z,87734.64
2023-11-24T13:47:42.886Z,87732.16
2023-11-24T13:50:11.306Z,87731.58
2023-11-24T13:52:39.231Z,87721.73
2023-11-24T13:55:08.080Z,87714.11
2023-11-24T13:57:37.521Z,87709.58
2023-11-24T14:00:11.466Z,87709.44
2023-11-24T14:02:39.391Z,87702.80
2023-11-24T14:23:05.661Z,87682.18
2023-11-24T14:25:33.550Z,87680.33
2023-11-24T14:28:01.255Z,87676.77
2023-11-24T14:30:34.078Z,87673.95
2023-11-24T14:33:01.697Z,87664.42
2023-11-24T14:35:29.443Z,87666.30
2023-11-24T14:37:58.946Z,87663.16
2023-11-24T14:40:27.879Z,87662.06
2023-11-24T14:42:55.544Z,87666.14
2023-11-24T14:45:27.039Z,87663.09
2023-11-24T14:47:56.147Z,87654.19
2023-11-24T14:50:29.810Z,87651.33
2023-11-24T14:52:59.297Z,87646.05
2023-11-24T14:55:30.259Z,87646.35
2023-11-24T14:57:58.488Z,87639.91
2023-11-24T15:00:32.280Z,87649.00
2023-11-24T15:03:09.902Z,87635.05
2023-11-24T15:05:42.319Z,87642.57
2023-11-24T15:08:16.025Z,87648.54
2023-11-24T15:10:44.936Z,87636.11
2023-11-24T15:13:33.671Z,87632.25
2023-11-24T15:16:01.597Z,87621.82
2023-11-24T15:18:29.663Z,87625.30
2023-11-24T15:20:57.988Z,87627.95
2023-11-24T15:23:26.463Z,87620.16
2023-11-24T15:25:56.968Z,87613.19
2023-11-24T15:28:27.749Z,87612.95
2023-11-24T15:30:56.684Z,87617.05
2023-11-24T15:33:28.178Z,87615.28
2023-11-24T15:35:55.841Z,87610.30
2023-11-24T15:38:25.334Z,87608.86
2023-11-24T15:40:54.018Z,87608.66
2023-11-24T15:43:22.924Z,87605.66
2023-11-24T15:45:55.773Z,87614.41
2023-11-24T15:48:24.883Z,87612.02
2023-11-24T15:50:57.940Z,87603.48
2023-11-24T15:53:26.767Z,87608.09
2023-11-24T15:55:55.041Z,87612.19
2023-11-24T15:58:26.730Z,87606.53
2023-11-24T16:00:56.630Z,87606.13
2023-11-24T16:03:26.185Z,87608.16
2023-11-24T16:05:56.205Z,87594.52
2023-11-24T16:08:33.562Z,87595.54
2023-11-24T16:11:11.460Z,87601.75
2023-11-24T16:13:42.943Z,87588.27
2023-11-24T16:16:10.702Z,87587.02
2023-11-24T16:18:42.028Z,87590.61
2023-11-24T16:21:09.652Z,87592.56
2023-11-24T16:23:37.507Z,87585.43
2023-11-24T16:26:06.592Z,87596.46
2023-11-24T16:28:35.720Z,87606.00
2023-11-24T16:31:04.214Z,87600.89
2023-11-24T16:33:34.817Z,87590.11
2023-11-24T16:36:02.791Z,87603.39
2023-11-24T16:38:32.396Z,87598.33
2023-11-24T16:41:05.293Z,87597.56
2023-11-24T16:43:33.480Z,87601.45
2023-11-24T16:46:01.533Z,87607.27
2023-11-24T16:48:29.505Z,87605.09
2023-11-24T16:50:58.787Z,87597.72
2023-11-24T16:53:26.445Z,87608.15
2023-11-24T16:55:55.036Z,87604.93
2023-11-24T16:58:23.456Z,87602.38
2023-11-24T17:00:51.440Z,87604.33
2023-11-24T17:03:19.273Z,87607.67
2023-11-24T17:05:48.567Z,87602.87
2023-11-24T17:08:16.328Z,87613.50
2023-11-24T17:10:47.072Z,87606.95
2023-11-24T17:13:14.906Z,87612.37
2023-11-24T17:15:47.304Z,87604.38
2023-11-24T17:18:15.726Z,87611.90
2023-11-24T17:20:45.232Z,87596.52
2023-11-24T17:23:18.309Z,87596.70
2023-11-24T17:25:47.144Z,87600.99
2023-11-24T17:28:15.944Z,87592.37
2023-11-24T17:30:43.926Z,87591.48
2023-11-24T17:33:12.320Z,87602.48
2023-11-24T17:35:40.274Z,87583.54
2023-11-24T17:38:08.226Z,87575.64
2023-11-24T17:40:36.015Z,87575.17
2023-11-24T17:43:04.085Z,87577.45
2023-11-24T17:45:32.146Z,87579.89
2023-11-24T17:48:00.791Z,87577.34
2023-11-24T17:50:30.622Z,87585.20
2023-11-24T17:52:58.405Z,87574.98
2023-11-24T17:55:27.291Z,87571.99
2023-11-24T18:00:57.046Z,87569.73
2023-11-24T18:03:25.652Z,87570.23
2023-11-24T18:05:54.520Z,87560.06
2023-11-24T18:08:25.035Z,87562.69
2023-11-24T18:10:52.795Z,87565.52
2023-11-24T18:13:20.864Z,87570.33
2023-11-24T18:15:48.625Z,87577.42
2023-11-24T18:18:17.351Z,87566.89
2023-11-24T18:20:47.641Z,87560.89
2023-11-24T18:23:15.088Z,87569.98
2023-11-24T18:25:43.694Z,87572.80
2023-11-24T18:28:13.113Z,87566.89
2023-11-24T18:30:41.470Z,87567.58
2023-11-24T18:33:12.176Z,87574.04
2023-11-24T18:35:40.182Z,87562.13
2023-11-24T18:38:08.321Z,87554.44
2023-11-24T18:40:35.777Z,87579.34
2023-11-24T18:43:03.915Z,87569.20
2023-11-24T18:45:32.130Z,87562.28
2023-11-24T18:47:59.872Z,87556.30
2023-11-24T18:50:27.742Z,87557.23
2023-11-24T18:52:55.421Z,87564.73
2023-11-24T18:55:23.422Z,87560.55
2023-11-24T18:57:53.535Z,87561.57
2023-11-24T19:00:21.939Z,87558.78
2023-11-24T19:02:51.395Z,87559.85
2023-11-24T19:05:21.222Z,87553.57
2023-11-24T19:07:50.500Z,87545.72
2023-11-24T19:10:20.355Z,87555.44
2023-11-24T19:12:52.915Z,87559.66
2023-11-24T19:15:21.478Z,87561.08
2023-11-24T19:17:49.517Z,87557.80
2023-11-24T19:20:19.572Z,87554.59
2023-11-24T19:22:48.972Z,87554.52
2023-11-24T19:25:17.402Z,87559.44
2023-11-24T19:27:45.528Z,87560.78
2023-11-24T19:30:13.627Z,87563.86
2023-11-24T19:32:41.631Z,87566.75
2023-11-24T19:35:10.160Z,87579.61
2023-11-24T19:37:38.008Z,87578.98
2023-11-24T19:40:07.575Z,87576.70
2023-11-24T19:42:35.434Z,87579.55
2023-11-24T19:45:04.379Z,87578.34
2023-11-24T19:47:32.279Z,87570.12
2023-11-24T19:50:00.010Z,87565.27
2023-11-24T19:52:28.324Z,87564.32
2023-11-24T19:54:56.365Z,87565.41
2023-11-24T19:57:24.336Z,87569.16
2023-11-24T19:59:56.495Z,87569.02
2023-11-24T20:02:24.651Z,87569.45
2023-11-24T20:04:53.252Z,87569.30
2023-11-24T20:07:24.354Z,87572.33
2023-11-24T20:09:54.007Z,87571.04
2023-11-24T20:12:22.074Z,87571.86
2023-11-24T20:14:50.676Z,87574.41
2023-11-24T20:17:18.631Z,87571.55
2023-11-24T20:19:47.488Z,87572.86
2023-11-24T20:22:15.311Z,87581.73
2023-11-24T20:24:44.242Z,87589.01
2023-11-24T20:27:12.446Z,87593.80
2023-11-24T20:29:40.112Z,87599.80
2023-11-24T20:32:08.190Z,87600.30
2023-11-24T20:34:35.915Z,87606.69
2023-11-24T20:37:04.145Z,87594.04
2023-11-24T20:39:32.200Z,87597.55
2023-11-24T20:42:02.348Z,87590.30
2023-11-24T20:44:32.582Z,87591.30
2023-11-24T20:47:01.879Z,87578.20
2023-11-24T20:49:29.973Z,87572.48
2023-11-24T20:51:58.942Z,87566.95
2023-11-24T20:54:26.984Z,87561.40
2023-11-24T20:56:54.829Z,87555.30
2023-11-24T20:59:22.912Z,87562.39
2023-11-24T21:01:50.895Z,87569.09
2023-11-24T21:04:18.695Z,87573.32
2023-11-24T21:06:47.759Z,87569.13
2023-11-24T21:09:16.787Z,87568.80
2023-11-24T21:11:44.927Z,87569.76
2023-11-24T21:14:13.067Z,87571.08
2023-11-24T21:16:41.068Z,87569.08
2023-11-24T21:19:08.857Z,87562.48
2023-11-24T21:21:37.767Z,87560.39
2023-11-24T21:24:06.515Z,87559.98
2023-11-24T21:26:35.264Z,87559.98
2023-11-24T21:29:04.978Z,87566.19
2023-11-24T21:31:33.480Z,87574.66
2023-11-24T21:34:02.340Z,87574.91
2023-11-24T21:36:32.275Z,87574.52
2023-11-24T21:39:00.939Z,87572.87
2023-11-24T21:41:29.850Z,87576.27
2023-11-24T21:43:57.402Z,87584.11
2023-11-24T21:46:25.411Z,87589.31
2023-11-24T21:48:53.658Z,87592.09
2023-11-24T21:51:21.422Z,87598.28
2023-11-24T21:53:49.381Z,87596.63
2023-11-24T21:56:27.056Z,87604.02
2023-11-24T21:58:55.053Z,87606.90
2023-11-24T22:01:24.690Z,87609.53
2023-11-24T22:03:53.875Z,87611.42
2023-11-24T22:06:26.042Z,87610.38
2023-11-24T22:08:53.781Z,87616.05
2023-11-24T22:11:21.648Z,87619.16
2023-11-24T22:13:49.415Z,87629.05
2023-11-24T22:16:17.548Z,87639.41
2023-11-24T22:18:51.673Z,87642.30
2023-11-24T22:21:20.390Z,87642.52
2023-11-24T22:23:48.422Z,87643.22
2023-11-24T22:26:20.206Z,87652.58
2023-11-24T22:28:50.030Z,87660.95
2023-11-24T22:31:18.077Z,87673.33
2023-11-24T22:33:46.662Z,87672.79
2023-11-24T22:36:20.123Z,87675.13
2023-11-24T22:38:48.916Z,87678.00
2023-11-24T22:41:21.646Z,87678.16
2023-11-24T22:43:52.812Z,87678.53
2023-11-24T22:46:22.094Z,87678.76
2023-11-24T22:48:51.255Z,87670.01
2023-11-24T22:51:27.916Z,87662.30
2023-11-24T22:53:56.349Z,87665.84
2023-11-24T22:56:25.750Z,87668.40
2023-11-24T22:59:00.317Z,87675.45
2023-11-24T23:01:29.820Z,87680.96
2023-11-24T23:04:01.268Z,87692.22
2023-11-24T23:06:29.893Z,87694.11
2023-11-24T23:08:58.288Z,87703.91
2023-11-24T23:11:27.762Z,87712.73
2023-11-24T23:13:55.250Z,87720.20
2023-11-24T23:16:27.002Z,87727.83
2023-11-24T23:18:55.296Z,87731.45
2023-11-24T23:21:24.250Z,87730.69
2023-11-24T23:23:53.366Z,87730.90
2023-11-24T23:26:21.443Z,87726.67
2023-11-24T23:28:49.673Z,87730.07
2023-11-24T23:31:18.529Z,87729.76
2023-11-24T23:33:47.553Z,87728.84
2023-11-24T23:36:16.822Z,87732.98
2023-11-24T23:38:47.327Z,87738.10
2023-11-24T23:41:15.103Z,87752.34
2023-11-24T23:43:43.470Z,87757.62
2023-11-24T23:46:11.715Z,87768.52
2023-11-24T23:48:40.126Z,87768.67
2023-11-24T23:51:08.296Z,87772.80
2023-11-24T23:53:36.182Z,87781.55
2023-11-24T23:56:04.153Z,87787.77
2023-11-24T23:58:33.466Z,87788.00
